sensor_id;sensor_type;location;lat;lon;timestamp;P1;durP1;ratioP1;P2;durP2;ratioP2
17812;SDS011;9030;50.792;8.320;2023-09-30T00:01:21;26.40;;;21.15;;
17812;SDS011;9030;50.792;8.320;2023-09-30T00:03:48;24.50;;;21.33;;
17812;SDS011;9030;50.792;8.320;2023-09-30T00:06:15;24.63;;;19.30;;
17812;SDS011;9030;50.792;8.320;2023-09-30T00:08:42;22.65;;;19.02;;
17812;SDS011;9030;50.792;8.320;2023-09-30T00:11:10;21.38;;;18.42;;
17812;SDS011;9030;50.792;8.320;2023-09-30T00:13:37;22.52;;;19.38;;
17812;SDS011;9030;50.792;8.320;2023-09-30T00:16:03;23.63;;;20.02;;
17812;SDS011;9030;50.792;8.320;2023-09-30T00:18:30;22.02;;;18.25;;
17812;SDS011;9030;50.792;8.320;2023-09-30T00:20:57;21.38;;;19.17;;
17812;SDS011;9030;50.792;8.320;2023-09-30T00:23:24;24.98;;;19.90;;
17812;SDS011;9030;50.792;8.320;2023-09-30T00:25:50;22.55;;;20.10;;
17812;SDS011;9030;50.792;8.320;2023-09-30T00:28:18;26.50;;;19.33;;
17812;SDS011;9030;50.792;8.320;2023-09-30T00:30:45;22.40;;;16.92;;
17812;SDS011;9030;50.792;8.320;2023-09-30T00:33:12;23.52;;;19.05;;
17812;SDS011;9030;50.792;8.320;2023-09-30T00:35:39;24.13;;;18.45;;
17812;SDS011;9030;50.792;8.320;2023-09-30T00:38:05;21.95;;;19.00;;
17812;SDS011;9030;50.792;8.320;2023-09-30T00:40:33;22.80;;;18.55;;
17812;SDS011;9030;50.792;8.320;2023-09-30T00:43:00;20.42;;;18.20;;
17812;SDS011;9030;50.792;8.320;2023-09-30T00:45:29;21.58;;;16.88;;
17812;SDS011;9030;50.792;8.320;2023-09-30T00:47:56;22.45;;;17.33;;
17812;SDS011;9030;50.792;8.320;2023-09-30T00:50:23;22.77;;;16.55;;
17812;SDS011;9030;50.792;8.320;2023-09-30T00:52:51;21.90;;;16.70;;
17812;SDS011;9030;50.792;8.320;2023-09-30T00:55:18;27.02;;;19.55;;
17812;SDS011;9030;50.792;8.320;2023-09-30T00:57:46;25.80;;;17.85;;
17812;SDS011;9030;50.792;8.320;2023-09-30T01:00:13;20.63;;;17.05;;
17812;SDS011;9030;50.792;8.320;2023-09-30T01:02:41;22.27;;;16.77;;
17812;SDS011;9030;50.792;8.320;2023-09-30T01:05:09;19.27;;;16.13;;
17812;SDS011;9030;50.792;8.320;2023-09-30T01:07:36;24.83;;;18.45;;
17812;SDS011;9030;50.792;8.320;2023-09-30T01:10:03;24.13;;;17.23;;
17812;SDS011;9030;50.792;8.320;2023-09-30T01:12:30;23.73;;;19.23;;
17812;SDS011;9030;50.792;8.320;2023-09-30T01:14:57;22.77;;;18.63;;
17812;SDS011;9030;50.792;8.320;2023-09-30T01:17:25;20.70;;;17.02;;
17812;SDS011;9030;50.792;8.320;2023-09-30T01:19:55;19.75;;;17.63;;
17812;SDS011;9030;50.792;8.320;2023-09-30T01:22:25;18.80;;;16.58;;
17812;SDS011;9030;50.792;8.320;2023-09-30T01:24:55;23.80;;;17.00;;
17812;SDS011;9030;50.792;8.320;2023-09-30T01:27:21;20.75;;;17.80;;
17812;SDS011;9030;50.792;8.320;2023-09-30T01:29:48;17.10;;;15.25;;
17812;SDS011;9030;50.792;8.320;2023-09-30T01:32:15;21.67;;;17.23;;
17812;SDS011;9030;50.792;8.320;2023-09-30T01:34:42;20.77;;;17.00;;
17812;SDS011;9030;50.792;8.320;2023-09-30T01:37:09;20.55;;;14.70;;
17812;SDS011;9030;50.792;8.320;2023-09-30T01:39:37;17.85;;;14.43;;
17812;SDS011;9030;50.792;8.320;2023-09-30T01:42:04;21.80;;;15.15;;
17812;SDS011;9030;50.792;8.320;2023-09-30T01:44:31;18.53;;;14.83;;
17812;SDS011;9030;50.792;8.320;2023-09-30T01:46:57;19.52;;;13.70;;
17812;SDS011;9030;50.792;8.320;2023-09-30T01:49:24;22.88;;;15.30;;
17812;SDS011;9030;50.792;8.320;2023-09-30T01:51:51;19.10;;;12.13;;
17812;SDS011;9030;50.792;8.320;2023-09-30T01:54:18;18.30;;;13.20;;
17812;SDS011;9030;50.792;8.320;2023-09-30T01:56:45;17.50;;;11.67;;
17812;SDS011;9030;50.792;8.320;2023-09-30T01:59:12;14.45;;;10.93;;
17812;SDS011;9030;50.792;8.320;2023-09-30T02:01:39;20.60;;;11.57;;
17812;SDS011;9030;50.792;8.320;2023-09-30T02:04:05;20.10;;;10.77;;
17812;SDS011;9030;50.792;8.320;2023-09-30T02:06:32;19.52;;;10.77;;
17812;SDS011;9030;50.792;8.320;2023-09-30T02:08:59;16.23;;;10.70;;
17812;SDS011;9030;50.792;8.320;2023-09-30T02:11:28;16.27;;;10.25;;
17812;SDS011;9030;50.792;8.320;2023-09-30T02:13:56;16.30;;;9.03;;
17812;SDS011;9030;50.792;8.320;2023-09-30T02:16:22;16.27;;;12.07;;
17812;SDS011;9030;50.792;8.320;2023-09-30T02:18:49;20.80;;;11.40;;
17812;SDS011;9030;50.792;8.320;2023-09-30T02:21:16;20.30;;;8.83;;
17812;SDS011;9030;50.792;8.320;2023-09-30T02:23:43;18.88;;;9.55;;
17812;SDS011;9030;50.792;8.320;2023-09-30T02:26:13;17.97;;;11.10;;
17812;SDS011;9030;50.792;8.320;2023-09-30T02:28:39;15.53;;;8.93;;
17812;SDS011;9030;50.792;8.320;2023-09-30T02:31:07;16.30;;;9.63;;
17812;SDS011;9030;50.792;8.320;2023-09-30T02:33:34;15.83;;;9.80;;
17812;SDS011;9030;50.792;8.320;2023-09-30T02:36:02;15.87;;;9.93;;
17812;SDS011;9030;50.792;8.320;2023-09-30T02:38:30;21.30;;;11.33;;
17812;SDS011;9030;50.792;8.320;2023-09-30T02:40:57;13.93;;;9.17;;
17812;SDS011;9030;50.792;8.320;2023-09-30T02:43:24;21.20;;;9.37;;
17812;SDS011;9030;50.792;8.320;2023-09-30T02:45:50;16.13;;;8.80;;
17812;SDS011;9030;50.792;8.320;2023-09-30T02:48:19;15.13;;;9.80;;
17812;SDS011;9030;50.792;8.320;2023-09-30T02:50:45;18.77;;;9.33;;
17812;SDS011;9030;50.792;8.320;2023-09-30T02:53:12;15.37;;;10.97;;
17812;SDS011;9030;50.792;8.320;2023-09-30T02:55:39;17.10;;;9.17;;
17812;SDS011;9030;50.792;8.320;2023-09-30T02:58:06;19.23;;;13.30;;
17812;SDS011;9030;50.792;8.320;2023-09-30T03:00:33;20.50;;;13.27;;
17812;SDS011;9030;50.792;8.320;2023-09-30T03:03:00;16.90;;;11.70;;
17812;SDS011;9030;50.792;8.320;2023-09-30T03:05:29;16.70;;;10.30;;
17812;SDS011;9030;50.792;8.320;2023-09-30T03:07:58;16.13;;;8.27;;
17812;SDS011;9030;50.792;8.320;2023-09-30T03:10:25;18.93;;;8.43;;
17812;SDS011;9030;50.792;8.320;2023-09-30T03:12:52;15.73;;;10.70;;
17812;SDS011;9030;50.792;8.320;2023-09-30T03:15:19;18.77;;;9.80;;
17812;SDS011;9030;50.792;8.320;2023-09-30T03:17:46;14.20;;;8.70;;
17812;SDS011;9030;50.792;8.320;2023-09-30T03:20:12;16.40;;;8.90;;
17812;SDS011;9030;50.792;8.320;2023-09-30T03:22:45;17.57;;;11.30;;
17812;SDS011;9030;50.792;8.320;2023-09-30T03:25:13;19.60;;;10.83;;
17812;SDS011;9030;50.792;8.320;2023-09-30T03:27:42;15.80;;;10.77;;
17812;SDS011;9030;50.792;8.320;2023-09-30T03:30:09;18.90;;;12.70;;
17812;SDS011;9030;50.792;8.320;2023-09-30T03:32:38;20.20;;;13.17;;
17812;SDS011;9030;50.792;8.320;2023-09-30T03:35:05;18.57;;;13.00;;
17812;SDS011;9030;50.792;8.320;2023-09-30T03:37:32;18.43;;;12.37;;
17812;SDS011;9030;50.792;8.320;2023-09-30T03:40:01;17.43;;;11.47;;
17812;SDS011;9030;50.792;8.320;2023-09-30T03:42:36;19.63;;;12.10;;
17812;SDS011;9030;50.792;8.320;2023-09-30T03:45:04;17.90;;;11.20;;
17812;SDS011;9030;50.792;8.320;2023-09-30T03:47:32;17.57;;;11.93;;
17812;SDS011;9030;50.792;8.320;2023-09-30T03:50:00;17.87;;;11.50;;
17812;SDS011;9030;50.792;8.320;2023-09-30T03:52:29;22.53;;;11.43;;
17812;SDS011;9030;50.792;8.320;2023-09-30T03:54:58;19.47;;;12.87;;
17812;SDS011;9030;50.792;8.320;2023-09-30T03:57:26;21.63;;;11.77;;
17812;SDS011;9030;50.792;8.320;2023-09-30T03:59:53;17.13;;;11.37;;
17812;SDS011;9030;50.792;8.320;2023-09-30T04:02:19;17.23;;;13.10;;
17812;SDS011;9030;50.792;8.320;2023-09-30T04:04:46;18.70;;;11.23;;
17812;SDS011;9030;50.792;8.320;2023-09-30T04:07:14;19.80;;;11.67;;
17812;SDS011;9030;50.792;8.320;2023-09-30T04:09:41;19.30;;;10.90;;
17812;SDS011;9030;50.792;8.320;2023-09-30T04:12:08;19.77;;;12.23;;
17812;SDS011;9030;50.792;8.320;2023-09-30T04:14:36;15.97;;;11.77;;
17812;SDS011;9030;50.792;8.320;2023-09-30T04:17:04;16.90;;;12.83;;
17812;SDS011;9030;50.792;8.320;2023-09-30T04:19:30;16.40;;;11.33;;
17812;SDS011;9030;50.792;8.320;2023-09-30T04:21:58;18.40;;;12.73;;
17812;SDS011;9030;50.792;8.320;2023-09-30T04:24:25;18.77;;;11.50;;
17812;SDS011;9030;50.792;8.320;2023-09-30T04:26:53;20.00;;;11.67;;
17812;SDS011;9030;50.792;8.320;2023-09-30T04:29:22;16.97;;;10.67;;
17812;SDS011;9030;50.792;8.320;2023-09-30T04:31:50;18.47;;;12.77;;
17812;SDS011;9030;50.792;8.320;2023-09-30T04:34:17;16.07;;;9.00;;
17812;SDS011;9030;50.792;8.320;2023-09-30T04:36:44;19.30;;;10.67;;
17812;SDS011;9030;50.792;8.320;2023-09-30T04:39:11;17.47;;;10.77;;
17812;SDS011;9030;50.792;8.320;2023-09-30T04:41:39;28.20;;;13.87;;
17812;SDS011;9030;50.792;8.320;2023-09-30T04:44:07;18.57;;;10.83;;
17812;SDS011;9030;50.792;8.320;2023-09-30T04:46:35;20.03;;;10.47;;
17812;SDS011;9030;50.792;8.320;2023-09-30T04:49:06;18.13;;;10.10;;
17812;SDS011;9030;50.792;8.320;2023-09-30T04:51:34;16.90;;;10.83;;
17812;SDS011;9030;50.792;8.320;2023-09-30T04:54:00;19.90;;;13.10;;
17812;SDS011;9030;50.792;8.320;2023-09-30T04:56:28;17.83;;;11.57;;
17812;SDS011;9030;50.792;8.320;2023-09-30T04:58:55;18.20;;;12.60;;
17812;SDS011;9030;50.792;8.320;2023-09-30T05:01:23;15.83;;;11.20;;
17812;SDS011;9030;50.792;8.320;2023-09-30T05:03:50;18.67;;;10.67;;
17812;SDS011;9030;50.792;8.320;2023-09-30T05:06:18;20.03;;;11.53;;
17812;SDS011;9030;50.792;8.320;2023-09-30T05:08:46;16.43;;;11.67;;
17812;SDS011;9030;50.792;8.320;2023-09-30T05:11:12;17.50;;;11.97;;
17812;SDS011;9030;50.792;8.320;2023-09-30T05:13:40;17.57;;;11.70;;
17812;SDS011;9030;50.792;8.320;2023-09-30T05:16:06;15.57;;;10.53;;
17812;SDS011;9030;50.792;8.320;2023-09-30T05:18:33;16.57;;;10.70;;
17812;SDS011;9030;50.792;8.320;2023-09-30T05:21:00;15.20;;;10.43;;
17812;SDS011;9030;50.792;8.320;2023-09-30T05:23:28;15.13;;;11.03;;
17812;SDS011;9030;50.792;8.320;2023-09-30T05:25:55;18.53;;;10.90;;
17812;SDS011;9030;50.792;8.320;2023-09-30T05:28:22;16.20;;;10.70;;
17812;SDS011;9030;50.792;8.320;2023-09-30T05:30:49;16.20;;;10.43;;
17812;SDS011;9030;50.792;8.320;2023-09-30T05:33:15;23.83;;;12.33;;
17812;SDS011;9030;50.792;8.320;2023-09-30T05:35:42;17.03;;;10.67;;
17812;SDS011;9030;50.792;8.320;2023-09-30T05:38:09;21.83;;;11.57;;
17812;SDS011;9030;50.792;8.320;2023-09-30T05:40:38;17.57;;;11.97;;
17812;SDS011;9030;50.792;8.320;2023-09-30T05:43:06;15.50;;;10.03;;
17812;SDS011;9030;50.792;8.320;2023-09-30T05:45:33;17.57;;;11.73;;
17812;SDS011;9030;50.792;8.320;2023-09-30T05:48:01;15.50;;;10.80;;
17812;SDS011;9030;50.792;8.320;2023-09-30T05:50:30;20.17;;;11.87;;
17812;SDS011;9030;50.792;8.320;2023-09-30T05:52:58;20.60;;;12.63;;
17812;SDS011;9030;50.792;8.320;2023-09-30T05:55:25;18.30;;;12.67;;
17812;SDS011;9030;50.792;8.320;2023-09-30T05:57:54;17.17;;;11.10;;
17812;SDS011;9030;50.792;8.320;2023-09-30T06:00:20;19.63;;;11.87;;
17812;SDS011;9030;50.792;8.320;2023-09-30T06:02:48;19.43;;;12.03;;
17812;SDS011;9030;50.792;8.320;2023-09-30T06:05:16;20.80;;;13.43;;
17812;SDS011;9030;50.792;8.320;2023-09-30T06:07:44;30.83;;;15.80;;
17812;SDS011;9030;50.792;8.320;2023-09-30T06:10:11;27.00;;;16.60;;
17812;SDS011;9030;50.792;8.320;2023-09-30T06:12:43;25.67;;;15.53;;
17812;SDS011;9030;50.792;8.320;2023-09-30T06:15:11;21.23;;;13.27;;
17812;SDS011;9030;50.792;8.320;2023-09-30T06:17:39;17.93;;;10.63;;
17812;SDS011;9030;50.792;8.320;2023-09-30T06:20:06;19.57;;;11.70;;
17812;SDS011;9030;50.792;8.320;2023-09-30T06:22:40;19.35;;;12.40;;
17812;SDS011;9030;50.792;8.320;2023-09-30T06:25:08;23.80;;;13.60;;
17812;SDS011;9030;50.792;8.320;2023-09-30T06:27:35;29.60;;;15.30;;
17812;SDS011;9030;50.792;8.320;2023-09-30T06:30:03;32.07;;;16.90;;
17812;SDS011;9030;50.792;8.320;2023-09-30T06:32:31;33.80;;;17.63;;
17812;SDS011;9030;50.792;8.320;2023-09-30T06:34:59;26.93;;;16.63;;
17812;SDS011;9030;50.792;8.320;2023-09-30T06:37:25;24.50;;;16.57;;
17812;SDS011;9030;50.792;8.320;2023-09-30T06:39:54;27.23;;;15.63;;
17812;SDS011;9030;50.792;8.320;2023-09-30T06:42:21;30.83;;;17.60;;
17812;SDS011;9030;50.792;8.320;2023-09-30T06:44:48;21.20;;;15.27;;
17812;SDS011;9030;50.792;8.320;2023-09-30T06:47:14;22.60;;;16.90;;
17812;SDS011;9030;50.792;8.320;2023-09-30T06:49:42;33.13;;;17.40;;
17812;SDS011;9030;50.792;8.320;2023-09-30T06:52:10;24.13;;;16.58;;
17812;SDS011;9030;50.792;8.320;2023-09-30T06:54:36;24.48;;;16.33;;
17812;SDS011;9030;50.792;8.320;2023-09-30T06:57:03;23.17;;;15.93;;
17812;SDS011;9030;50.792;8.320;2023-09-30T06:59:31;40.83;;;15.65;;
17812;SDS011;9030;50.792;8.320;2023-09-30T07:01:58;26.10;;;15.40;;
17812;SDS011;9030;50.792;8.320;2023-09-30T07:04:25;23.08;;;14.82;;
17812;SDS011;9030;50.792;8.320;2023-09-30T07:06:53;22.63;;;13.57;;
17812;SDS011;9030;50.792;8.320;2023-09-30T07:09:20;21.60;;;14.13;;
17812;SDS011;9030;50.792;8.320;2023-09-30T07:11:46;20.53;;;13.30;;
17812;SDS011;9030;50.792;8.320;2023-09-30T07:14:14;22.27;;;14.40;;
17812;SDS011;9030;50.792;8.320;2023-09-30T07:16:41;20.90;;;14.07;;
17812;SDS011;9030;50.792;8.320;2023-09-30T07:19:08;36.80;;;14.70;;
17812;SDS011;9030;50.792;8.320;2023-09-30T07:21:34;17.33;;;12.90;;
17812;SDS011;9030;50.792;8.320;2023-09-30T07:24:04;25.38;;;13.70;;
17812;SDS011;9030;50.792;8.320;2023-09-30T07:26:31;20.33;;;12.75;;
17812;SDS011;9030;50.792;8.320;2023-09-30T07:28:58;15.80;;;11.52;;
17812;SDS011;9030;50.792;8.320;2023-09-30T07:31:24;20.48;;;12.80;;
17812;SDS011;9030;50.792;8.320;2023-09-30T07:33:51;20.00;;;12.52;;
17812;SDS011;9030;50.792;8.320;2023-09-30T07:36:18;16.55;;;11.68;;
17812;SDS011;9030;50.792;8.320;2023-09-30T07:38:45;18.73;;;11.65;;
17812;SDS011;9030;50.792;8.320;2023-09-30T07:41:13;15.90;;;11.05;;
17812;SDS011;9030;50.792;8.320;2023-09-30T07:43:40;16.00;;;11.02;;
17812;SDS011;9030;50.792;8.320;2023-09-30T07:46:06;16.42;;;10.82;;
17812;SDS011;9030;50.792;8.320;2023-09-30T07:48:33;17.30;;;11.45;;
17812;SDS011;9030;50.792;8.320;2023-09-30T07:51:00;16.00;;;11.30;;
17812;SDS011;9030;50.792;8.320;2023-09-30T07:53:27;15.10;;;11.18;;
17812;SDS011;9030;50.792;8.320;2023-09-30T07:55:53;14.75;;;10.73;;
17812;SDS011;9030;50.792;8.320;2023-09-30T07:58:22;15.60;;;10.95;;
17812;SDS011;9030;50.792;8.320;2023-09-30T08:00:50;15.25;;;9.88;;
17812;SDS011;9030;50.792;8.320;2023-09-30T08:03:16;14.48;;;11.00;;
17812;SDS011;9030;50.792;8.320;2023-09-30T08:05:43;16.23;;;11.23;;
17812;SDS011;9030;50.792;8.320;2023-09-30T08:08:11;14.23;;;11.85;;
17812;SDS011;9030;50.792;8.320;2023-09-30T08:10:39;19.52;;;12.63;;
17812;SDS011;9030;50.792;8.320;2023-09-30T08:13:06;15.32;;;11.75;;
17812;SDS011;9030;50.792;8.320;2023-09-30T08:15:34;16.05;;;11.32;;
17812;SDS011;9030;50.792;8.320;2023-09-30T08:18:01;15.02;;;10.70;;
17812;SDS011;9030;50.792;8.320;2023-09-30T08:20:31;18.73;;;11.15;;
17812;SDS011;9030;50.792;8.320;2023-09-30T08:22:57;14.32;;;10.32;;
17812;SDS011;9030;50.792;8.320;2023-09-30T08:25:24;16.48;;;12.00;;
17812;SDS011;9030;50.792;8.320;2023-09-30T08:27:51;17.65;;;11.05;;
17812;SDS011;9030;50.792;8.320;2023-09-30T08:30:18;15.30;;;11.73;;
17812;SDS011;9030;50.792;8.320;2023-09-30T08:32:47;14.30;;;10.57;;
17812;SDS011;9030;50.792;8.320;2023-09-30T08:35:14;17.58;;;11.15;;
17812;SDS011;9030;50.792;8.320;2023-09-30T08:37:41;15.93;;;11.00;;
17812;SDS011;9030;50.792;8.320;2023-09-30T08:40:08;13.27;;;10.50;;
17812;SDS011;9030;50.792;8.320;2023-09-30T08:42:35;13.20;;;9.10;;
17812;SDS011;9030;50.792;8.320;2023-09-30T08:45:05;14.45;;;10.13;;
17812;SDS011;9030;50.792;8.320;2023-09-30T08:47:36;13.55;;;9.73;;
17812;SDS011;9030;50.792;8.320;2023-09-30T08:50:05;13.02;;;9.68;;
17812;SDS011;9030;50.792;8.320;2023-09-30T08:52:35;12.48;;;8.68;;
17812;SDS011;9030;50.792;8.320;2023-09-30T08:55:04;13.98;;;9.63;;
17812;SDS011;9030;50.792;8.320;2023-09-30T08:57:32;13.05;;;9.02;;
17812;SDS011;9030;50.792;8.320;2023-09-30T09:00:02;12.18;;;8.20;;
17812;SDS011;9030;50.792;8.320;2023-09-30T09:02:31;12.98;;;7.70;;
17812;SDS011;9030;50.792;8.320;2023-09-30T09:05:00;12.27;;;7.50;;
17812;SDS011;9030;50.792;8.320;2023-09-30T09:07:29;11.60;;;6.78;;
17812;SDS011;9030;50.792;8.320;2023-09-30T09:10:03;15.18;;;10.65;;
17812;SDS011;9030;50.792;8.320;2023-09-30T09:12:31;21.10;;;16.45;;
17812;SDS011;9030;50.792;8.320;2023-09-30T09:14:59;48.90;;;44.08;;
17812;SDS011;9030;50.792;8.320;2023-09-30T09:17:30;63.25;;;57.00;;
17812;SDS011;9030;50.792;8.320;2023-09-30T09:20:06;42.08;;;37.60;;
17812;SDS011;9030;50.792;8.320;2023-09-30T09:22:39;26.58;;;20.75;;
17812;SDS011;9030;50.792;8.320;2023-09-30T09:25:06;29.33;;;23.85;;
17812;SDS011;9030;50.792;8.320;2023-09-30T09:27:33;27.25;;;19.73;;
17812;SDS011;9030;50.792;8.320;2023-09-30T09:30:13;25.85;;;14.48;;
17812;SDS011;9030;50.792;8.320;2023-09-30T09:32:51;20.45;;;11.77;;
17812;SDS011;9030;50.792;8.320;2023-09-30T09:35:19;10.32;;;4.28;;
17812;SDS011;9030;50.792;8.320;2023-09-30T09:37:55;13.23;;;4.50;;
17812;SDS011;9030;50.792;8.320;2023-09-30T09:40:23;12.48;;;4.90;;
17812;SDS011;9030;50.792;8.320;2023-09-30T09:42:51;11.00;;;4.03;;
17812;SDS011;9030;50.792;8.320;2023-09-30T09:45:20;15.30;;;4.53;;
17812;SDS011;9030;50.792;8.320;2023-09-30T09:47:48;17.20;;;3.90;;
17812;SDS011;9030;50.792;8.320;2023-09-30T09:50:15;12.57;;;3.80;;
17812;SDS011;9030;50.792;8.320;2023-09-30T09:52:43;10.20;;;3.05;;
17812;SDS011;9030;50.792;8.320;2023-09-30T09:55:14;14.30;;;3.72;;
17812;SDS011;9030;50.792;8.320;2023-09-30T09:57:43;16.02;;;4.50;;
17812;SDS011;9030;50.792;8.320;2023-09-30T10:00:11;12.85;;;3.60;;
17812;SDS011;9030;50.792;8.320;2023-09-30T10:02:39;8.40;;;3.70;;
17812;SDS011;9030;50.792;8.320;2023-09-30T10:05:06;13.95;;;3.28;;
17812;SDS011;9030;50.792;8.320;2023-09-30T10:07:37;12.52;;;3.05;;
17812;SDS011;9030;50.792;8.320;2023-09-30T10:10:13;15.98;;;6.60;;
17812;SDS011;9030;50.792;8.320;2023-09-30T10:12:43;13.48;;;5.22;;
17812;SDS011;9030;50.792;8.320;2023-09-30T10:18:06;9.90;;;2.95;;
17812;SDS011;9030;50.792;8.320;2023-09-30T10:20:35;6.85;;;2.50;;
17812;SDS011;9030;50.792;8.320;2023-09-30T10:23:20;9.50;;;2.97;;
17812;SDS011;9030;50.792;8.320;2023-09-30T10:25:50;9.82;;;2.65;;
17812;SDS011;9030;50.792;8.320;2023-09-30T10:28:35;8.75;;;2.53;;
17812;SDS011;9030;50.792;8.320;2023-09-30T10:31:10;12.65;;;3.13;;
17812;SDS011;9030;50.792;8.320;2023-09-30T10:36:38;8.60;;;2.97;;
17812;SDS011;9030;50.792;8.320;2023-09-30T10:39:06;9.45;;;2.30;;
17812;SDS011;9030;50.792;8.320;2023-09-30T10:41:49;7.85;;;2.40;;
17812;SDS011;9030;50.792;8.320;2023-09-30T10:44:32;8.98;;;2.75;;
17812;SDS011;9030;50.792;8.320;2023-09-30T10:46:59;9.80;;;2.47;;
17812;SDS011;9030;50.792;8.320;2023-09-30T10:49:29;10.88;;;3.33;;
17812;SDS011;9030;50.792;8.320;2023-09-30T10:52:03;11.85;;;2.75;;
17812;SDS011;9030;50.792;8.320;2023-09-30T10:54:30;10.77;;;3.50;;
17812;SDS011;9030;50.792;8.320;2023-09-30T10:56:59;9.15;;;2.25;;
17812;SDS011;9030;50.792;8.320;2023-09-30T10:59:28;10.40;;;2.55;;
17812;SDS011;9030;50.792;8.320;2023-09-30T11:01:56;8.43;;;2.10;;
17812;SDS011;9030;50.792;8.320;2023-09-30T11:04:23;11.80;;;3.45;;
17812;SDS011;9030;50.792;8.320;2023-09-30T11:06:52;9.13;;;2.65;;
17812;SDS011;9030;50.792;8.320;2023-09-30T11:09:19;9.60;;;2.60;;
17812;SDS011;9030;50.792;8.320;2023-09-30T11:11:47;10.02;;;2.72;;
17812;SDS011;9030;50.792;8.320;2023-09-30T11:14:17;7.88;;;2.30;;
17812;SDS011;9030;50.792;8.320;2023-09-30T11:16:45;6.18;;;1.98;;
17812;SDS011;9030;50.792;8.320;2023-09-30T11:19:12;9.85;;;2.25;;
17812;SDS011;9030;50.792;8.320;2023-09-30T11:21:40;8.00;;;2.13;;
17812;SDS011;9030;50.792;8.320;2023-09-30T11:24:08;10.13;;;2.17;;
17812;SDS011;9030;50.792;8.320;2023-09-30T11:26:35;8.35;;;2.97;;
17812;SDS011;9030;50.792;8.320;2023-09-30T11:29:05;9.07;;;2.78;;
17812;SDS011;9030;50.792;8.320;2023-09-30T11:31:33;10.35;;;2.92;;
17812;SDS011;9030;50.792;8.320;2023-09-30T11:34:03;7.60;;;2.90;;
17812;SDS011;9030;50.792;8.320;2023-09-30T11:36:33;7.22;;;1.83;;
17812;SDS011;9030;50.792;8.320;2023-09-30T11:39:01;7.40;;;2.13;;
17812;SDS011;9030;50.792;8.320;2023-09-30T11:41:34;6.53;;;2.25;;
17812;SDS011;9030;50.792;8.320;2023-09-30T11:44:03;6.38;;;1.55;;
17812;SDS011;9030;50.792;8.320;2023-09-30T11:46:46;7.45;;;1.52;;
17812;SDS011;9030;50.792;8.320;2023-09-30T11:49:23;7.00;;;2.30;;
17812;SDS011;9030;50.792;8.320;2023-09-30T11:51:54;7.90;;;2.33;;
17812;SDS011;9030;50.792;8.320;2023-09-30T11:54:21;6.72;;;2.35;;
17812;SDS011;9030;50.792;8.320;2023-09-30T11:56:48;9.05;;;3.58;;
17812;SDS011;9030;50.792;8.320;2023-09-30T11:59:16;7.53;;;2.67;;
17812;SDS011;9030;50.792;8.320;2023-09-30T12:01:45;5.18;;;2.13;;
17812;SDS011;9030;50.792;8.320;2023-09-30T12:04:13;7.22;;;1.80;;
17812;SDS011;9030;50.792;8.320;2023-09-30T12:06:42;11.70;;;2.92;;
17812;SDS011;9030;50.792;8.320;2023-09-30T12:09:08;9.73;;;2.00;;
17812;SDS011;9030;50.792;8.320;2023-09-30T12:11:38;11.75;;;2.88;;
17812;SDS011;9030;50.792;8.320;2023-09-30T12:14:08;8.65;;;2.50;;
17812;SDS011;9030;50.792;8.320;2023-09-30T12:16:35;8.63;;;2.05;;
17812;SDS011;9030;50.792;8.320;2023-09-30T12:19:03;10.80;;;2.97;;
17812;SDS011;9030;50.792;8.320;2023-09-30T12:21:30;11.63;;;3.60;;
17812;SDS011;9030;50.792;8.320;2023-09-30T12:23:59;10.02;;;3.15;;
17812;SDS011;9030;50.792;8.320;2023-09-30T12:26:26;10.32;;;2.65;;
17812;SDS011;9030;50.792;8.320;2023-09-30T12:28:53;7.18;;;2.45;;
17812;SDS011;9030;50.792;8.320;2023-09-30T12:31:20;12.15;;;3.13;;
17812;SDS011;9030;50.792;8.320;2023-09-30T12:33:46;11.75;;;3.33;;
17812;SDS011;9030;50.792;8.320;2023-09-30T12:36:17;12.40;;;3.45;;
17812;SDS011;9030;50.792;8.320;2023-09-30T12:38:43;10.07;;;2.20;;
17812;SDS011;9030;50.792;8.320;2023-09-30T12:41:10;10.45;;;3.17;;
17812;SDS011;9030;50.792;8.320;2023-09-30T12:43:37;6.75;;;2.40;;
17812;SDS011;9030;50.792;8.320;2023-09-30T12:46:06;7.47;;;2.28;;
17812;SDS011;9030;50.792;8.320;2023-09-30T12:48:32;6.43;;;2.30;;
17812;SDS011;9030;50.792;8.320;2023-09-30T12:51:00;6.75;;;2.75;;
17812;SDS011;9030;50.792;8.320;2023-09-30T12:53:30;13.90;;;5.00;;
17812;SDS011;9030;50.792;8.320;2023-09-30T12:55:57;16.83;;;5.35;;
17812;SDS011;9030;50.792;8.320;2023-09-30T12:58:24;10.13;;;3.13;;
17812;SDS011;9030;50.792;8.320;2023-09-30T13:00:52;9.77;;;3.35;;
17812;SDS011;9030;50.792;8.320;2023-09-30T13:03:19;11.07;;;3.60;;
17812;SDS011;9030;50.792;8.320;2023-09-30T13:05:46;12.05;;;4.25;;
17812;SDS011;9030;50.792;8.320;2023-09-30T13:08:12;6.88;;;2.67;;
17812;SDS011;9030;50.792;8.320;2023-09-30T13:10:40;10.52;;;3.20;;
17812;SDS011;9030;50.792;8.320;2023-09-30T13:13:09;9.23;;;2.53;;
17812;SDS011;9030;50.792;8.320;2023-09-30T13:15:36;8.35;;;3.05;;
17812;SDS011;9030;50.792;8.320;2023-09-30T13:18:03;14.43;;;3.97;;
17812;SDS011;9030;50.792;8.320;2023-09-30T13:20:30;9.15;;;2.33;;
17812;SDS011;9030;50.792;8.320;2023-09-30T13:22:57;9.20;;;2.95;;
17812;SDS011;9030;50.792;8.320;2023-09-30T13:25:24;8.73;;;3.03;;
17812;SDS011;9030;50.792;8.320;2023-09-30T13:27:52;6.95;;;2.88;;
17812;SDS011;9030;50.792;8.320;2023-09-30T13:30:19;7.40;;;2.60;;
17812;SDS011;9030;50.792;8.320;2023-09-30T13:32:47;7.60;;;2.45;;
17812;SDS011;9030;50.792;8.320;2023-09-30T13:35:14;9.18;;;3.03;;
17812;SDS011;9030;50.792;8.320;2023-09-30T13:37:41;10.90;;;2.92;;
17812;SDS011;9030;50.792;8.320;2023-09-30T13:40:08;7.80;;;2.55;;
17812;SDS011;9030;50.792;8.320;2023-09-30T13:42:38;9.52;;;3.20;;
17812;SDS011;9030;50.792;8.320;2023-09-30T13:45:07;10.75;;;3.65;;
17812;SDS011;9030;50.792;8.320;2023-09-30T13:47:34;11.70;;;3.45;;
17812;SDS011;9030;50.792;8.320;2023-09-30T13:50:01;8.57;;;2.90;;
17812;SDS011;9030;50.792;8.320;2023-09-30T13:52:31;9.50;;;3.03;;
17812;SDS011;9030;50.792;8.320;2023-09-30T13:54:58;10.48;;;2.38;;
17812;SDS011;9030;50.792;8.320;2023-09-30T13:57:25;10.55;;;3.03;;
17812;SDS011;9030;50.792;8.320;2023-09-30T13:59:52;12.60;;;2.70;;
17812;SDS011;9030;50.792;8.320;2023-09-30T14:02:20;9.20;;;2.72;;
17812;SDS011;9030;50.792;8.320;2023-09-30T14:04:47;6.82;;;2.47;;
17812;SDS011;9030;50.792;8.320;2023-09-30T14:07:14;9.65;;;2.83;;
17812;SDS011;9030;50.792;8.320;2023-09-30T14:09:43;10.25;;;2.55;;
17812;SDS011;9030;50.792;8.320;2023-09-30T14:12:10;11.55;;;2.85;;
17812;SDS011;9030;50.792;8.320;2023-09-30T14:14:37;7.18;;;3.25;;
17812;SDS011;9030;50.792;8.320;2023-09-30T14:17:03;9.20;;;3.10;;
17812;SDS011;9030;50.792;8.320;2023-09-30T14:19:34;11.73;;;4.63;;
17812;SDS011;9030;50.792;8.320;2023-09-30T14:22:00;11.52;;;5.32;;
17812;SDS011;9030;50.792;8.320;2023-09-30T14:24:29;11.65;;;4.43;;
17812;SDS011;9030;50.792;8.320;2023-09-30T14:26:55;11.88;;;3.72;;
17812;SDS011;9030;50.792;8.320;2023-09-30T14:29:22;7.85;;;2.97;;
17812;SDS011;9030;50.792;8.320;2023-09-30T14:31:49;6.65;;;2.45;;
17812;SDS011;9030;50.792;8.320;2023-09-30T14:34:16;8.98;;;3.15;;
17812;SDS011;9030;50.792;8.320;2023-09-30T14:36:44;10.15;;;3.70;;
17812;SDS011;9030;50.792;8.320;2023-09-30T14:39:12;12.10;;;3.72;;
17812;SDS011;9030;50.792;8.320;2023-09-30T14:41:40;9.13;;;2.95;;
17812;SDS011;9030;50.792;8.320;2023-09-30T14:44:07;9.82;;;3.15;;
17812;SDS011;9030;50.792;8.320;2023-09-30T14:46:36;9.63;;;3.38;;
17812;SDS011;9030;50.792;8.320;2023-09-30T14:49:03;6.13;;;2.67;;
17812;SDS011;9030;50.792;8.320;2023-09-30T14:51:31;9.20;;;3.08;;
17812;SDS011;9030;50.792;8.320;2023-09-30T14:53:59;10.60;;;3.83;;